CPX793 Details

Departure: Kingsford Smith International Airport (YSSY)
Arrival: Auckland International Airport (NZAA) at N/A
Route: TESAT L521 LUNBI AA
Notes:


Current Weather Information
YSSY 231330Z 17005KT CAVOK 19/17 Q1017 FM1600 20008KT 9999 SCT010
NZAA 231330Z AUTO 24018KT 9999 VCSH FEW039/// SCT050/// BKN060/// 12/07 Q1011 NOSIG